createdAt,value
2019-05-20T00:00:33.881Z,10.51
2019-05-20T00:01:33.853Z,10.52
2019-05-20T00:02:33.901Z,10.46
2019-05-20T00:03:33.894Z,10.49
2019-05-20T00:04:33.933Z,10.44
2019-05-20T00:05:33.856Z,10.51
2019-05-20T00:06:33.793Z,10.47
2019-05-20T00:07:33.843Z,10.52
2019-05-20T00:08:33.794Z,10.47
2019-05-20T00:09:34.797Z,10.51
2019-05-20T00:10:33.755Z,10.49
2019-05-20T00:11:33.736Z,10.46
2019-05-20T00:12:33.726Z,10.47
2019-05-20T00:13:33.809Z,10.54
2019-05-20T00:14:33.708Z,10.39
2019-05-20T00:15:33.784Z,10.47
2019-05-20T00:16:33.697Z,10.42
2019-05-20T00:17:33.721Z,10.49
2019-05-20T00:18:33.689Z,10.46
2019-05-20T00:19:33.750Z,10.47
2019-05-20T00:20:33.661Z,10.44
2019-05-20T00:21:33.702Z,10.42
2019-05-20T00:22:33.626Z,10.43
2019-05-20T00:23:33.673Z,10.51
2019-05-20T00:24:33.593Z,10.47
2019-05-20T00:25:33.674Z,10.46
2019-05-20T00:26:33.573Z,10.44
2019-05-20T00:27:33.564Z,10.47
2019-05-20T00:28:33.585Z,10.51
2019-05-20T00:29:33.645Z,10.49
2019-05-20T00:30:33.527Z,10.36
2019-05-20T00:31:33.576Z,10.46
2019-05-20T00:32:40.957Z,10.44
2019-05-20T00:33:34.517Z,10.44
2019-05-20T00:34:35.590Z,10.47
2019-05-20T00:35:33.489Z,10.34
2019-05-20T00:36:33.511Z,10.38
2019-05-20T00:37:33.453Z,10.36
2019-05-20T00:38:33.471Z,10.32
2019-05-20T00:39:33.432Z,10.39
2019-05-20T00:40:33.481Z,10.34
2019-05-20T00:41:33.422Z,10.38
2019-05-20T00:42:33.426Z,10.34
2019-05-20T00:43:33.438Z,10.26
2019-05-20T00:44:33.377Z,10.31
2019-05-20T00:45:33.424Z,10.28
2019-05-20T00:46:33.379Z,10.29
2019-05-20T00:47:33.466Z,10.34
2019-05-20T00:48:33.346Z,10.28
2019-05-20T00:49:33.318Z,10.34
2019-05-20T00:50:33.377Z,10.34
2019-05-20T00:51:33.297Z,10.26
2019-05-20T00:52:33.409Z,10.20
2019-05-20T00:53:33.278Z,10.26
2019-05-20T00:54:33.284Z,10.22
2019-05-20T00:55:33.310Z,10.17
2019-05-20T00:56:33.231Z,10.17
2019-05-20T00:57:33.340Z,10.20
2019-05-20T00:58:33.211Z,10.16
2019-05-20T00:59:33.233Z,10.22
2019-05-20T01:00:33.204Z,10.17
2019-05-20T01:01:33.231Z,10.13
2019-05-20T01:02:33.174Z,10.14
2019-05-20T01:03:33.255Z,10.17
2019-05-20T01:04:33.165Z,10.17
2019-05-20T01:05:33.150Z,9.98
2019-05-20T01:06:33.156Z,10.10
2019-05-20T01:07:33.118Z,10.11
2019-05-20T01:08:33.187Z,10.11
2019-05-20T01:09:33.117Z,10.16
2019-05-20T01:10:33.088Z,10.13
2019-05-20T01:11:33.068Z,10.07
2019-05-20T01:12:33.169Z,10.11
2019-05-20T01:13:33.060Z,10.01
2019-05-20T01:14:33.153Z,9.91
2019-05-20T01:15:33.058Z,9.95
2019-05-20T01:16:33.111Z,9.92
2019-05-20T01:17:33.012Z,9.85
2019-05-20T01:18:33.073Z,9.86
2019-05-20T01:19:33.003Z,9.89
2019-05-20T01:20:33.013Z,9.91
2019-05-20T01:21:32.956Z,9.91
2019-05-20T01:22:33.047Z,9.91
2019-05-20T01:23:32.925Z,9.81
2019-05-20T01:24:33.036Z,9.83
2019-05-20T01:25:32.896Z,9.80
2019-05-20T01:26:32.897Z,9.86
2019-05-20T01:27:32.879Z,9.80
2019-05-20T01:28:32.968Z,9.85
2019-05-20T01:29:32.888Z,9.81
2019-05-20T01:30:32.889Z,9.85
2019-05-20T01:31:32.850Z,9.81
2019-05-20T01:32:32.841Z,9.83
2019-05-20T01:33:32.890Z,9.80
2019-05-20T01:34:32.841Z,9.77
2019-05-20T01:35:32.822Z,9.75
2019-05-20T01:36:32.810Z,9.81
2019-05-20T01:37:32.783Z,9.75
2019-05-20T01:38:32.774Z,9.70
2019-05-20T01:39:32.849Z,9.65
2019-05-20T01:40:32.734Z,9.68
2019-05-20T01:41:32.736Z,9.65
2019-05-20T01:42:32.726Z,9.75
2019-05-20T01:43:32.776Z,9.77
2019-05-20T01:44:32.717Z,9.73
2019-05-20T01:45:32.717Z,9.80
2019-05-20T01:46:32.658Z,9.85
2019-05-20T01:47:32.748Z,9.70
2019-05-20T01:48:32.662Z,9.62
2019-05-20T01:49:32.740Z,9.70
2019-05-20T01:50:32.619Z,9.71
2019-05-20T01:51:32.721Z,9.71
2019-05-20T01:52:32.622Z,9.71
2019-05-20T01:53:32.581Z,9.63
2019-05-20T01:54:32.622Z,9.75
2019-05-20T01:55:32.593Z,9.80
2019-05-20T01:56:32.576Z,9.63
2019-05-20T01:57:32.623Z,9.71
2019-05-20T01:58:32.537Z,9.65
2019-05-20T01:59:33.601Z,9.50
2019-05-20T02:00:32.541Z,9.58
2019-05-20T02:01:32.627Z,9.56
2019-05-20T02:02:32.486Z,9.56
2019-05-20T02:03:32.706Z,9.62
2019-05-20T02:04:32.468Z,9.55
2019-05-20T02:05:32.509Z,9.60
2019-05-20T02:06:32.459Z,9.60
2019-05-20T02:07:32.520Z,9.65
2019-05-20T02:08:32.430Z,9.63
2019-05-20T02:09:32.420Z,9.55
2019-05-20T02:10:32.422Z,9.60
2019-05-20T02:11:32.482Z,9.56
2019-05-20T02:12:32.382Z,9.45
2019-05-20T02:13:32.423Z,9.56
2019-05-20T02:14:32.364Z,9.56
2019-05-20T02:15:32.364Z,9.62
2019-05-20T02:16:32.425Z,9.60
2019-05-20T02:17:32.326Z,9.67
2019-05-20T02:18:32.359Z,9.60
2019-05-20T02:19:32.316Z,9.65
2019-05-20T02:20:32.367Z,9.62
2019-05-20T02:21:32.277Z,9.58
2019-05-20T02:22:32.329Z,9.65
2019-05-20T02:23:32.269Z,9.52
2019-05-20T02:24:32.270Z,9.58
2019-05-20T02:25:32.249Z,9.63
2019-05-20T02:26:32.303Z,9.68
2019-05-20T02:27:32.210Z,9.70
2019-05-20T02:28:32.237Z,9.71
2019-05-20T02:29:32.191Z,9.78
2019-05-20T02:30:32.223Z,9.83
2019-05-20T02:31:32.173Z,9.83
2019-05-20T02:32:32.214Z,9.85
2019-05-20T02:33:49.847Z,9.92
2019-05-20T02:34:33.145Z,9.91
2019-05-20T02:35:33.175Z,9.99
2019-05-20T02:36:33.207Z,9.99
2019-05-20T02:37:32.106Z,9.92
2019-05-20T02:38:32.128Z,9.86
2019-05-20T02:39:32.066Z,9.95
2019-05-20T02:40:32.198Z,9.95
2019-05-20T02:41:32.069Z,9.91
2019-05-20T02:42:32.089Z,9.81
2019-05-20T02:43:32.032Z,9.75
2019-05-20T02:44:32.134Z,9.88
2019-05-20T02:45:32.041Z,9.91
2019-05-20T02:46:32.063Z,9.92
2019-05-20T02:47:31.992Z,9.89
2019-05-20T02:48:32.022Z,9.85
2019-05-20T02:49:31.960Z,9.89
2019-05-20T02:50:33.004Z,9.86
2019-05-20T02:51:31.961Z,9.89
2019-05-20T02:52:31.943Z,9.85
2019-05-20T02:53:31.909Z,9.83
2019-05-20T02:54:32.005Z,9.78
2019-05-20T02:55:31.927Z,9.81
2019-05-20T02:56:31.938Z,9.74
2019-05-20T02:57:31.878Z,9.73
2019-05-20T02:58:31.992Z,9.85
2019-05-20T02:59:31.859Z,9.80
2019-05-20T03:00:31.964Z,9.75
2019-05-20T03:01:31.837Z,9.80
2019-05-20T03:02:31.850Z,9.83
2019-05-20T03:03:31.811Z,9.85
2019-05-20T03:04:31.890Z,9.77
2019-05-20T03:05:31.780Z,9.75
2019-05-20T03:06:31.884Z,9.81
2019-05-20T03:07:31.755Z,9.75
2019-05-20T03:08:31.752Z,9.73
2019-05-20T03:09:31.735Z,9.71
2019-05-20T03:10:32.818Z,9.63
2019-05-20T03:11:31.736Z,9.71
2019-05-20T03:12:31.735Z,9.68
2019-05-20T03:13:31.713Z,9.65
2019-05-20T03:14:31.767Z,9.59
2019-05-20T03:15:31.668Z,9.59
2019-05-20T03:16:32.840Z,9.59
2019-05-20T03:17:31.649Z,9.68
2019-05-20T03:18:32.660Z,9.63
2019-05-20T03:19:31.737Z,9.65
2019-05-20T03:20:31.680Z,9.63
2019-05-20T03:21:31.622Z,9.62
2019-05-20T03:22:31.645Z,9.59
2019-05-20T03:23:31.587Z,9.53
2019-05-20T03:24:31.575Z,9.62
2019-05-20T03:25:31.552Z,9.63
2019-05-20T03:26:32.664Z,9.60
2019-05-20T03:27:31.533Z,9.63
2019-05-20T03:28:31.634Z,9.59
2019-05-20T03:29:31.514Z,9.65
2019-05-20T03:30:31.496Z,9.63
2019-05-20T03:31:31.595Z,9.62
2019-05-20T03:32:31.478Z,9.71
2019-05-20T03:33:31.570Z,9.74
2019-05-20T03:34:58.073Z,9.68
2019-05-20T03:35:32.445Z,9.67
2019-05-20T03:36:31.510Z,9.74
2019-05-20T03:37:31.421Z,9.75
2019-05-20T03:38:31.510Z,9.80
2019-05-20T03:39:31.389Z,9.74
2019-05-20T03:40:31.391Z,9.77
2019-05-20T03:41:31.411Z,9.78
2019-05-20T03:42:31.471Z,9.78
2019-05-20T03:43:31.361Z,9.65
2019-05-20T03:44:31.412Z,9.68
2019-05-20T03:45:31.323Z,9.75
2019-05-20T03:46:31.358Z,9.68
2019-05-20T03:47:31.316Z,9.70
2019-05-20T03:48:31.385Z,9.68
2019-05-20T03:49:31.275Z,9.63
2019-05-20T03:50:31.315Z,9.68
2019-05-20T03:51:31.296Z,9.70
2019-05-20T03:52:31.371Z,9.70
2019-05-20T03:53:31.237Z,9.83
2019-05-20T03:54:31.311Z,9.74
2019-05-20T03:55:31.227Z,9.74
2019-05-20T03:56:31.228Z,9.83
2019-05-20T03:57:31.199Z,9.88
2019-05-20T03:58:31.321Z,9.93
2019-05-20T03:59:31.190Z,9.88
2019-05-20T04:00:31.211Z,10.07
2019-05-20T04:01:31.241Z,10.09
2019-05-20T04:02:31.159Z,10.04
2019-05-20T04:03:31.202Z,10.07
2019-05-20T04:04:31.123Z,10.13
2019-05-20T04:05:31.143Z,10.18
2019-05-20T04:06:31.123Z,10.14
2019-05-20T04:07:31.098Z,10.25
2019-05-20T04:08:31.079Z,10.26
2019-05-20T04:09:31.116Z,10.28
2019-05-20T04:10:31.066Z,10.26
2019-05-20T04:11:31.098Z,10.36
2019-05-20T04:12:31.037Z,10.34
2019-05-20T04:13:34.514Z,10.39
2019-05-20T04:14:31.009Z,10.35
2019-05-20T04:15:31.018Z,10.35
2019-05-20T04:16:31.009Z,10.52
2019-05-20T04:17:31.049Z,10.52
2019-05-20T04:18:31.024Z,10.51
2019-05-20T04:19:30.961Z,10.55
2019-05-20T04:20:30.962Z,10.60
2019-05-20T04:21:30.934Z,10.69
2019-05-20T04:22:31.054Z,10.58
2019-05-20T04:23:30.930Z,10.69
2019-05-20T04:24:30.935Z,10.69
2019-05-20T04:25:30.875Z,10.75
2019-05-20T04:26:30.974Z,10.78
2019-05-20T04:27:30.884Z,10.73
2019-05-20T04:28:30.905Z,10.78
2019-05-20T04:29:30.838Z,10.70
2019-05-20T04:30:30.946Z,10.78
2019-05-20T04:31:30.828Z,10.81
2019-05-20T04:32:30.919Z,10.83
2019-05-20T04:33:30.799Z,10.90
2019-05-20T04:34:30.779Z,10.93
2019-05-20T04:35:30.770Z,10.95
2019-05-20T04:36:30.852Z,11.02
2019-05-20T04:37:30.772Z,11.06
2019-05-20T04:38:30.791Z,11.13
2019-05-20T04:39:30.733Z,11.17
2019-05-20T04:40:30.723Z,11.16
2019-05-20T04:41:30.712Z,11.16
2019-05-20T04:42:30.807Z,11.28
2019-05-20T04:43:30.685Z,11.23
2019-05-20T04:44:30.698Z,11.39
2019-05-20T04:45:30.644Z,11.42
2019-05-20T04:46:30.726Z,11.49
2019-05-20T04:47:30.656Z,11.46
2019-05-20T04:48:30.677Z,11.57
2019-05-20T04:49:30.617Z,11.57
2019-05-20T04:50:30.609Z,11.53
2019-05-20T04:51:30.617Z,11.63
2019-05-20T04:52:30.679Z,11.60
2019-05-20T04:53:30.570Z,11.63
2019-05-20T04:54:30.590Z,11.75
2019-05-20T04:55:30.560Z,11.66
2019-05-20T04:56:30.557Z,11.81
2019-05-20T04:57:30.623Z,11.79
2019-05-20T04:58:30.523Z,11.97
2019-05-20T04:59:30.623Z,11.94
2019-05-20T05:00:30.492Z,11.98
2019-05-20T05:01:30.494Z,12.13
2019-05-20T05:02:30.502Z,12.23
2019-05-20T05:03:30.584Z,12.22
2019-05-20T05:04:30.449Z,12.38
2019-05-20T05:05:37.717Z,12.43
2019-05-20T05:06:31.517Z,12.46
2019-05-20T05:07:30.426Z,12.58
2019-05-20T05:08:31.448Z,12.49
2019-05-20T05:09:30.387Z,12.52
2019-05-20T05:10:30.459Z,12.58
2019-05-20T05:11:30.370Z,12.52
2019-05-20T05:12:30.449Z,12.62
2019-05-20T05:13:30.359Z,12.58
2019-05-20T05:14:30.440Z,12.56
2019-05-20T05:15:30.320Z,12.55
2019-05-20T05:16:30.382Z,12.69
2019-05-20T05:17:30.325Z,12.58
2019-05-20T05:18:30.310Z,12.55
2019-05-20T05:19:30.273Z,12.69
2019-05-20T05:20:30.353Z,12.70
2019-05-20T05:21:30.255Z,12.69
2019-05-20T05:22:30.265Z,12.73
2019-05-20T05:23:30.245Z,12.73
2019-05-20T05:24:30.315Z,12.79
2019-05-20T05:25:30.196Z,12.77
2019-05-20T05:26:30.261Z,12.87
2019-05-20T05:27:30.221Z,12.77
2019-05-20T05:28:30.292Z,12.87
2019-05-20T05:29:30.170Z,12.92
2019-05-20T05:30:30.229Z,12.92
2019-05-20T05:31:30.149Z,12.85
2019-05-20T05:32:30.201Z,12.85
2019-05-20T05:33:30.120Z,12.95
2019-05-20T05:34:30.201Z,12.92
2019-05-20T05:35:30.093Z,12.99
2019-05-20T05:36:30.131Z,12.96
2019-05-20T05:37:30.096Z,13.09
2019-05-20T05:38:30.083Z,12.92
2019-05-20T05:39:30.053Z,12.96
2019-05-20T05:40:30.115Z,12.96
2019-05-20T05:41:30.045Z,12.99
2019-05-20T05:42:30.035Z,12.99
2019-05-20T05:43:30.066Z,12.98
2019-05-20T05:44:29.997Z,12.99
2019-05-20T05:45:30.107Z,12.96
2019-05-20T05:46:29.996Z,12.96
2019-05-20T05:47:29.989Z,12.96
2019-05-20T05:48:29.982Z,12.99
2019-05-20T05:49:31.965Z,12.94
2019-05-20T05:50:29.923Z,13.03
2019-05-20T05:51:32.012Z,13.09
2019-05-20T05:52:29.910Z,13.06
2019-05-20T05:53:29.932Z,12.98
2019-05-20T05:54:29.892Z,13.07
2019-05-20T05:55:29.932Z,13.06
2019-05-20T05:56:29.864Z,13.13
2019-05-20T05:57:29.963Z,13.13
2019-05-20T05:58:29.857Z,13.14
2019-05-20T05:59:29.845Z,13.16
2019-05-20T06:00:29.825Z,13.25
2019-05-20T06:01:29.836Z,13.35
2019-05-20T06:02:29.814Z,13.43
2019-05-20T06:03:29.929Z,13.57
2019-05-20T06:04:29.857Z,13.57
2019-05-20T06:05:31.721Z,13.73
2019-05-20T06:06:29.789Z,13.80
2019-05-20T06:07:29.729Z,13.91
2019-05-20T06:08:29.869Z,13.93
2019-05-20T06:09:29.730Z,14.09
2019-05-20T06:10:30.774Z,14.11
2019-05-20T06:11:29.711Z,14.23
2019-05-20T06:12:29.775Z,14.27
2019-05-20T06:13:29.703Z,14.30
2019-05-20T06:14:29.726Z,14.41
2019-05-20T06:15:29.643Z,14.53
2019-05-20T06:16:36.625Z,14.61
2019-05-20T06:17:30.643Z,14.86
2019-05-20T06:18:29.746Z,15.07
2019-05-20T06:19:29.616Z,15.34
2019-05-20T06:20:29.606Z,15.48
2019-05-20T06:21:29.747Z,15.41
2019-05-20T06:22:29.567Z,15.28
2019-05-20T06:23:29.682Z,15.15
2019-05-20T06:24:29.548Z,15.09
2019-05-20T06:25:29.549Z,15.19
2019-05-20T06:26:29.658Z,15.27
2019-05-20T06:27:29.531Z,15.38
2019-05-20T06:28:30.541Z,15.56
2019-05-20T06:29:29.491Z,15.64
2019-05-20T06:30:29.492Z,15.76
2019-05-20T06:31:29.541Z,15.85
2019-05-20T06:32:29.554Z,16.04
2019-05-20T06:33:29.453Z,16.14
2019-05-20T06:34:29.548Z,16.11
2019-05-20T06:35:30.475Z,16.13
2019-05-20T06:36:29.415Z,15.98
2019-05-20T06:37:30.529Z,15.92
2019-05-20T06:38:29.416Z,15.73
2019-05-20T06:39:29.457Z,15.70
2019-05-20T06:40:29.373Z,15.55
2019-05-20T06:41:29.478Z,15.52
2019-05-20T06:42:29.348Z,15.46
2019-05-20T06:43:30.430Z,15.48
2019-05-20T06:44:29.350Z,15.44
2019-05-20T06:45:29.329Z,15.34
2019-05-20T06:46:29.303Z,15.31
2019-05-20T06:47:29.381Z,15.30
2019-05-20T06:48:29.292Z,15.25
2019-05-20T06:49:29.355Z,15.25
2019-05-20T06:50:29.822Z,15.33
2019-05-20T06:51:29.253Z,15.28
2019-05-20T06:52:35.833Z,15.46
2019-05-20T06:53:30.304Z,15.51
2019-05-20T06:54:29.242Z,15.71
2019-05-20T06:55:29.227Z,15.96
2019-05-20T06:56:29.303Z,16.13
2019-05-20T06:57:29.178Z,16.30
2019-05-20T06:58:29.228Z,16.54
2019-05-20T06:59:29.170Z,16.57
2019-05-20T07:00:29.259Z,16.62
2019-05-20T07:01:29.142Z,16.78
2019-05-20T07:02:29.201Z,16.70
2019-05-20T07:03:29.116Z,16.54
2019-05-20T07:04:29.192Z,16.30
2019-05-20T07:05:29.119Z,16.34
2019-05-20T07:06:44.687Z,16.45
2019-05-20T07:07:30.064Z,16.78
2019-05-20T07:08:29.119Z,16.90
2019-05-20T07:09:29.066Z,16.88
2019-05-20T07:10:29.145Z,17.10
2019-05-20T07:11:29.046Z,17.27
2019-05-20T07:12:40.577Z,17.38
2019-05-20T07:13:29.995Z,17.32
2019-05-20T07:14:29.059Z,17.55
2019-05-20T07:15:28.967Z,17.66
2019-05-20T07:16:29.057Z,17.74
2019-05-20T07:17:28.958Z,17.77
2019-05-20T07:18:28.939Z,17.89
2019-05-20T07:19:30.030Z,17.98
2019-05-20T07:20:28.919Z,18.14
2019-05-20T07:21:29.003Z,18.16
2019-05-20T07:22:28.902Z,18.14
2019-05-20T07:23:28.891Z,18.20
2019-05-20T07:24:28.923Z,18.13
2019-05-20T07:25:29.265Z,18.25
2019-05-20T07:26:28.863Z,18.29
2019-05-20T07:27:28.909Z,18.32
2019-05-20T07:28:28.843Z,18.53
2019-05-20T07:29:28.892Z,18.54
2019-05-20T07:30:28.825Z,18.62
2019-05-20T07:31:28.869Z,18.65
2019-05-20T07:32:28.787Z,18.66
2019-05-20T07:33:28.817Z,18.56
2019-05-20T07:34:28.806Z,18.57
2019-05-20T07:35:31.146Z,18.50
2019-05-20T07:36:28.735Z,18.46
2019-05-20T07:37:28.797Z,18.17
2019-05-20T07:38:28.774Z,17.91
2019-05-20T07:39:28.733Z,17.86
2019-05-20T07:40:28.791Z,17.99
2019-05-20T07:41:28.672Z,18.01
2019-05-20T07:42:28.722Z,18.11
2019-05-20T07:43:28.663Z,18.16
2019-05-20T07:44:28.706Z,18.23
2019-05-20T07:45:28.645Z,18.39
2019-05-20T07:46:28.695Z,18.41
2019-05-20T07:47:28.627Z,18.50
2019-05-20T07:48:28.631Z,18.65
2019-05-20T07:49:28.607Z,18.68
2019-05-20T07:50:28.577Z,18.75
2019-05-20T07:51:28.641Z,18.86
2019-05-20T07:52:28.560Z,19.02
2019-05-20T07:53:28.802Z,19.15
2019-05-20T07:54:28.560Z,19.28
2019-05-20T07:55:28.535Z,19.31
2019-05-20T07:56:28.572Z,19.49
2019-05-20T07:57:28.504Z,19.46
2019-05-20T07:58:28.527Z,19.43
2019-05-20T07:59:28.492Z,19.57
2019-05-20T08:00:28.474Z,19.58
2019-05-20T08:01:28.486Z,19.53
2019-05-20T08:02:28.475Z,19.46
2019-05-20T08:03:28.435Z,19.65
2019-05-20T08:04:28.473Z,19.64
2019-05-20T08:05:28.428Z,19.82
2019-05-20T08:06:28.397Z,19.76
2019-05-20T08:07:49.878Z,19.76
2019-05-20T08:08:29.388Z,19.79
2019-05-20T08:09:28.380Z,19.82
2019-05-20T08:10:28.435Z,19.87
2019-05-20T08:11:28.400Z,19.83
2019-05-20T08:12:28.339Z,19.71
2019-05-20T08:13:28.430Z,19.67
2019-05-20T08:14:28.323Z,19.80
2019-05-20T08:15:28.374Z,20.01
2019-05-20T08:16:28.285Z,20.04
2019-05-20T08:17:28.307Z,20.25
2019-05-20T08:18:28.264Z,20.26
2019-05-20T08:19:28.295Z,20.53
2019-05-20T08:20:28.255Z,20.56
2019-05-20T08:21:28.270Z,20.72
2019-05-20T08:22:28.226Z,20.81
2019-05-20T08:23:28.309Z,20.97
2019-05-20T08:24:28.213Z,21.16
2019-05-20T08:25:28.252Z,21.36
2019-05-20T08:26:28.201Z,21.48
2019-05-20T08:27:28.159Z,21.71
2019-05-20T08:28:28.151Z,21.77
2019-05-20T08:29:28.276Z,21.75
2019-05-20T08:30:28.130Z,21.74
2019-05-20T08:31:28.161Z,21.90
2019-05-20T08:32:28.147Z,21.77
2019-05-20T08:33:28.203Z,21.81
2019-05-20T08:34:28.092Z,21.71
2019-05-20T08:35:28.135Z,21.77
2019-05-20T08:36:28.087Z,21.71
2019-05-20T08:37:44.321Z,21.67
2019-05-20T08:38:29.060Z,21.51
2019-05-20T08:39:28.049Z,21.42
2019-05-20T08:40:28.128Z,21.48
2019-05-20T08:41:28.042Z,21.38
2019-05-20T08:42:28.043Z,21.33
2019-05-20T08:43:27.988Z,21.30
2019-05-20T08:44:28.045Z,21.21
2019-05-20T08:45:27.975Z,21.06
2019-05-20T08:46:27.984Z,20.96
2019-05-20T08:47:27.934Z,20.81
2019-05-20T08:48:28.018Z,20.76
2019-05-20T08:49:27.930Z,20.76
2019-05-20T08:50:28.002Z,20.76
2019-05-20T08:51:27.883Z,20.78
2019-05-20T08:52:27.994Z,20.90
2019-05-20T08:53:27.892Z,20.97
2019-05-20T08:54:27.855Z,21.05
2019-05-20T08:55:27.877Z,21.18
2019-05-20T08:56:27.866Z,21.42
2019-05-20T08:57:27.837Z,21.53
2019-05-20T08:58:27.900Z,21.68
2019-05-20T08:59:27.824Z,21.82
2019-05-20T09:00:27.878Z,21.81
2019-05-20T09:01:27.920Z,21.75
2019-05-20T09:02:27.775Z,21.81
2019-05-20T09:03:30.308Z,21.81
2019-05-20T09:04:27.755Z,21.90
2019-05-20T09:05:28.558Z,21.71
2019-05-20T09:06:27.722Z,21.63
2019-05-20T09:07:28.746Z,21.70
2019-05-20T09:08:27.704Z,21.68
2019-05-20T09:09:27.936Z,21.75
2019-05-20T09:10:27.705Z,21.66
2019-05-20T09:11:27.693Z,21.70
2019-05-20T09:12:27.662Z,21.56
2019-05-20T09:13:27.733Z,21.66
2019-05-20T09:14:27.774Z,21.64
2019-05-20T09:15:28.074Z,21.56
2019-05-20T09:16:27.727Z,21.63
2019-05-20T09:17:27.617Z,21.75
2019-05-20T09:18:27.689Z,21.79
2019-05-20T09:19:27.569Z,21.83
2019-05-20T09:20:27.651Z,21.81
2019-05-20T09:21:27.561Z,21.68
2019-05-20T09:22:27.666Z,21.63
2019-05-20T09:23:27.537Z,21.75
2019-05-20T09:24:27.575Z,21.94
2019-05-20T09:25:27.537Z,22.09
2019-05-20T09:26:27.497Z,22.14
2019-05-20T09:27:27.485Z,22.15
2019-05-20T09:28:27.540Z,22.21
2019-05-20T09:29:27.467Z,22.19
2019-05-20T09:30:27.527Z,22.21
2019-05-20T09:31:27.455Z,22.24
2019-05-20T09:32:27.460Z,22.36
2019-05-20T09:33:27.419Z,22.59
2019-05-20T09:34:27.453Z,22.74
2019-05-20T09:35:27.420Z,22.88
2019-05-20T09:36:27.494Z,23.03
2019-05-20T09:37:27.369Z,23.21
2019-05-20T09:38:27.384Z,23.32
2019-05-20T09:39:27.403Z,23.35
2019-05-20T09:40:27.353Z,23.42
2019-05-20T09:41:27.424Z,23.60
2019-05-20T09:42:27.335Z,23.81
2019-05-20T09:43:27.307Z,24.00
2019-05-20T09:44:27.306Z,24.24
2019-05-20T09:45:27.416Z,24.48
2019-05-20T09:46:27.298Z,24.45
2019-05-20T09:47:27.348Z,24.37
2019-05-20T09:48:27.258Z,24.46
2019-05-20T09:49:27.361Z,24.56
2019-05-20T09:50:27.228Z,24.82
2019-05-20T09:51:27.244Z,24.98
2019-05-20T09:52:27.210Z,25.23
2019-05-20T09:53:27.257Z,25.48
2019-05-20T09:54:27.241Z,25.59
2019-05-20T09:55:27.203Z,25.71
2019-05-20T09:56:28.227Z,25.76
2019-05-20T09:57:27.142Z,25.66
2019-05-20T09:58:27.349Z,25.78
2019-05-20T09:59:42.018Z,25.31
2019-05-20T10:00:28.125Z,24.98
2019-05-20T10:01:27.235Z,24.97
2019-05-20T10:02:35.366Z,25.05
2019-05-20T10:03:28.091Z,25.23
2019-05-20T10:04:27.068Z,25.05
2019-05-20T10:05:27.052Z,25.01
2019-05-20T10:06:27.194Z,24.60
2019-05-20T10:07:27.040Z,24.83
2019-05-20T10:08:37.914Z,24.94
2019-05-20T10:09:28.042Z,24.79
2019-05-20T10:10:27.014Z,24.46
2019-05-20T10:11:27.112Z,24.12
2019-05-20T10:12:44.627Z,23.99
2019-05-20T10:13:27.973Z,23.79
2019-05-20T10:14:27.004Z,23.90
2019-05-20T10:15:26.943Z,23.96
2019-05-20T10:16:26.956Z,23.74
2019-05-20T10:17:26.986Z,23.35
2019-05-20T10:18:36.592Z,23.50
2019-05-20T10:19:27.895Z,23.23
2019-05-20T10:20:26.897Z,23.44
2019-05-20T10:21:26.907Z,23.42
2019-05-20T10:22:26.919Z,23.45
2019-05-20T10:23:26.871Z,23.53
2019-05-20T10:24:26.959Z,23.77
2019-05-20T10:25:26.831Z,23.87
2019-05-20T10:26:26.862Z,23.74
2019-05-20T10:27:26.872Z,23.59
2019-05-20T10:28:26.802Z,23.68
2019-05-20T10:29:26.902Z,23.81
2019-05-20T10:30:26.784Z,23.62
2019-05-20T10:31:26.793Z,23.42
2019-05-20T10:32:26.756Z,23.22
2019-05-20T10:33:26.778Z,23.16
2019-05-20T10:34:26.736Z,23.34
2019-05-20T10:35:26.816Z,23.38
2019-05-20T10:36:26.816Z,23.35
2019-05-20T10:37:26.708Z,23.69
2019-05-20T10:38:26.854Z,24.15
2019-05-20T10:39:26.679Z,24.02
2019-05-20T10:40:27.790Z,23.78
2019-05-20T10:41:29.460Z,23.29
2019-05-20T10:42:26.661Z,23.04
2019-05-20T10:43:26.652Z,22.89
2019-05-20T10:44:26.633Z,22.99
2019-05-20T10:45:26.682Z,22.96
2019-05-20T10:46:26.593Z,22.97
2019-05-20T10:47:26.614Z,23.12
2019-05-20T10:48:26.595Z,23.23
2019-05-20T10:49:26.566Z,23.32
2019-05-20T10:50:26.638Z,23.68
2019-05-20T10:51:26.535Z,23.69
2019-05-20T10:52:26.580Z,23.77
2019-05-20T10:53:28.474Z,23.35
2019-05-20T10:54:27.628Z,22.91
2019-05-20T10:55:26.498Z,23.12
2019-05-20T10:56:27.570Z,23.41
2019-05-20T10:57:26.496Z,23.64
2019-05-20T10:58:26.472Z,23.49
2019-05-20T10:59:26.541Z,23.59
2019-05-20T11:00:26.446Z,23.67
2019-05-20T11:01:26.482Z,23.68
2019-05-20T11:02:31.002Z,23.53
2019-05-20T11:03:26.404Z,23.77
2019-05-20T11:04:26.405Z,24.02
2019-05-20T11:05:26.455Z,24.12
2019-05-20T11:06:26.382Z,23.87
2019-05-20T11:07:26.436Z,23.89
2019-05-20T11:08:26.457Z,23.89
2019-05-20T11:09:26.337Z,23.99
2019-05-20T11:10:26.389Z,23.90
2019-05-20T11:11:26.339Z,23.69
2019-05-20T11:12:26.369Z,23.34
2019-05-20T11:13:26.290Z,23.00
2019-05-20T11:14:26.281Z,22.61
2019-05-20T11:15:26.348Z,22.23
2019-05-20T11:16:26.280Z,22.04
2019-05-20T11:17:26.313Z,22.20
2019-05-20T11:18:26.243Z,22.27
2019-05-20T11:19:26.237Z,22.35
2019-05-20T11:20:26.226Z,22.33
2019-05-20T11:21:26.234Z,22.36
2019-05-20T11:22:26.217Z,22.36
2019-05-20T11:23:26.277Z,22.21
2019-05-20T11:24:26.178Z,22.38
2019-05-20T11:25:26.174Z,22.41
2019-05-20T11:26:26.180Z,22.52
2019-05-20T11:27:26.148Z,22.57
2019-05-20T11:28:26.219Z,22.49
2019-05-20T11:29:26.121Z,22.52
2019-05-20T11:30:26.100Z,22.51
2019-05-20T11:31:26.121Z,22.57
2019-05-20T11:32:26.103Z,22.61
2019-05-20T11:33:26.152Z,22.85
2019-05-20T11:34:26.043Z,22.89
2019-05-20T11:35:26.104Z,22.79
2019-05-20T11:36:26.053Z,22.86
2019-05-20T11:37:26.076Z,22.69
2019-05-20T11:38:26.025Z,22.75
2019-05-20T11:39:33.418Z,22.63
2019-05-20T11:40:26.986Z,22.48
2019-05-20T11:41:52.135Z,22.51
2019-05-20T11:42:26.988Z,22.42
2019-05-20T11:43:26.051Z,22.39
2019-05-20T11:44:25.950Z,22.69
2019-05-20T11:45:25.983Z,22.78
2019-05-20T11:46:25.931Z,22.97
2019-05-20T11:47:25.961Z,23.14
2019-05-20T11:48:25.902Z,23.26
2019-05-20T11:49:28.960Z,23.45
2019-05-20T11:50:25.874Z,23.72
2019-05-20T11:51:25.893Z,23.84
2019-05-20T11:52:25.874Z,24.00
2019-05-20T11:53:25.936Z,24.14
2019-05-20T11:54:25.869Z,24.11
2019-05-20T11:55:25.868Z,23.92
2019-05-20T11:56:25.817Z,23.96
2019-05-20T11:57:25.882Z,23.90
2019-05-20T11:58:25.788Z,23.99
2019-05-20T11:59:25.837Z,23.99
2019-05-20T12:00:25.769Z,23.99
2019-05-20T12:01:25.770Z,24.02
2019-05-20T12:02:25.741Z,24.16
2019-05-20T12:03:25.741Z,24.16
2019-05-20T12:04:25.772Z,24.19
2019-05-20T12:05:25.712Z,24.14
2019-05-20T12:06:25.815Z,24.16
2019-05-20T12:07:25.684Z,24.31
2019-05-20T12:08:25.698Z,24.16
2019-05-20T12:09:25.667Z,24.15
2019-05-20T12:10:25.686Z,24.15
2019-05-20T12:11:25.646Z,24.04
2019-05-20T12:12:25.726Z,23.93
2019-05-20T12:13:25.661Z,23.87
2019-05-20T12:14:26.678Z,23.97
2019-05-20T12:15:25.609Z,24.02
2019-05-20T12:16:26.610Z,24.16
2019-05-20T12:17:25.580Z,24.12
2019-05-20T12:18:27.620Z,24.15
2019-05-20T12:19:32.561Z,24.29
2019-05-20T12:20:25.552Z,24.15
2019-05-20T12:21:25.633Z,24.09
2019-05-20T12:22:25.522Z,23.92
2019-05-20T12:23:26.644Z,23.75
2019-05-20T12:24:25.505Z,23.72
2019-05-20T12:25:46.696Z,23.74
2019-05-20T12:26:25.472Z,23.60
2019-05-20T12:27:25.477Z,23.64
2019-05-20T12:28:25.656Z,23.59
2019-05-20T12:29:25.421Z,23.50
2019-05-20T12:30:25.443Z,23.45
2019-05-20T12:31:25.429Z,23.45
2019-05-20T12:32:25.545Z,23.35
2019-05-20T12:33:25.399Z,22.99
2019-05-20T12:34:25.435Z,22.46
2019-05-20T12:35:25.494Z,22.08
2019-05-20T12:36:25.391Z,21.64
2019-05-20T12:37:25.434Z,21.05
2019-05-20T12:38:25.359Z,20.85
2019-05-20T12:39:25.408Z,20.48
2019-05-20T12:40:25.314Z,20.07
2019-05-20T12:41:25.596Z,19.98
2019-05-20T12:42:25.295Z,19.68
2019-05-20T12:43:25.378Z,19.49
2019-05-20T12:44:25.288Z,19.52
2019-05-20T12:45:25.368Z,19.34
2019-05-20T12:46:25.258Z,19.13
2019-05-20T12:47:25.319Z,19.10
2019-05-20T12:48:25.251Z,18.90
2019-05-20T12:49:25.370Z,18.76
2019-05-20T12:50:25.200Z,18.71
2019-05-20T12:51:25.203Z,18.71
2019-05-20T12:52:25.261Z,18.64
2019-05-20T12:53:25.185Z,18.50
2019-05-20T12:54:25.186Z,18.44
2019-05-20T12:55:25.163Z,18.51
2019-05-20T12:56:25.134Z,18.64
2019-05-20T12:57:25.126Z,18.62
2019-05-20T12:58:25.217Z,18.53